createdAt,value
2018-04-13T00:02:02.348Z,1009.39
2018-04-13T00:03:23.556Z,1009.44
2018-04-13T00:05:01.574Z,1009.45
2018-04-13T00:06:44.056Z,1009.42
2018-04-13T00:07:41.414Z,1009.45
2018-04-13T00:09:21.561Z,1009.48
2018-04-13T00:11:21.093Z,1009.48
2018-04-13T00:12:37.270Z,1009.53
2018-04-13T00:14:39.003Z,1009.54
2018-04-13T00:15:57.525Z,1009.50
2018-04-13T00:17:40.380Z,1009.47
2018-04-13T00:18:59.225Z,1009.49
2018-04-13T00:19:59.345Z,1009.52
2018-04-13T00:22:03.597Z,1009.47
2018-04-13T00:22:42.634Z,1009.49
2018-04-13T00:24:22.593Z,1009.49
2018-04-13T00:26:00.171Z,1009.47
2018-04-13T00:27:21.399Z,1009.49
2018-04-13T00:28:59.188Z,1009.44
2018-04-13T00:30:45.445Z,1009.39
2018-04-13T00:32:04.008Z,1009.33
2018-04-13T00:33:49.699Z,1009.35
2018-04-13T00:36:15.507Z,1009.40
2018-04-13T00:37:29.233Z,1009.36
2018-04-13T00:41:19.940Z,1009.43
2018-04-13T00:42:57.633Z,1009.48
2018-04-13T00:44:40.139Z,1009.44
2018-04-13T00:45:58.693Z,1009.45
2018-04-13T00:47:42.626Z,1009.45
2018-04-13T00:49:02.564Z,1009.44
2018-04-13T00:50:45.130Z,1009.41
2018-04-13T00:52:25.621Z,1009.47
2018-04-13T00:53:41.950Z,1009.47
2018-04-13T00:55:22.861Z,1009.55
2018-04-13T00:57:00.610Z,1009.58
2018-04-13T00:58:43.105Z,1009.58
2018-04-13T00:59:40.582Z,1009.56
2018-04-13T01:02:25.423Z,1009.53
2018-04-13T01:03:41.929Z,1009.61
2018-04-13T01:05:22.067Z,1009.54
2018-04-13T01:07:24.345Z,1009.50
2018-04-13T01:10:05.718Z,1009.52
2018-04-13T01:11:48.441Z,1009.51
2018-04-13T01:15:19.981Z,1009.67
2018-04-13T01:16:58.389Z,1009.74
2018-04-13T01:18:41.022Z,1009.70
2018-04-13T01:19:59.574Z,1009.60
2018-04-13T01:21:20.740Z,1009.67
2018-04-13T01:23:01.501Z,1009.75
2018-04-13T01:24:44.122Z,1009.74
2018-04-13T01:25:41.374Z,1009.64
2018-04-13T01:27:22.290Z,1009.68
2018-04-13T01:28:38.612Z,1009.60
2018-04-13T01:31:16.821Z,1009.70
2018-04-13T01:34:21.165Z,1009.68
2018-04-13T01:35:58.432Z,1009.65
2018-04-13T01:36:58.387Z,1009.74
2018-04-13T01:38:44.317Z,1009.69
2018-04-13T01:40:02.770Z,1009.70
2018-04-13T01:41:45.276Z,1009.63
2018-04-13T01:43:03.912Z,1009.63
2018-04-13T01:44:03.927Z,1009.64
2018-04-13T01:45:46.309Z,1009.67
2018-04-13T01:47:05.318Z,1009.67
2018-04-13T01:48:49.004Z,1009.68
2018-04-13T01:51:36.428Z,1009.73
2018-04-13T01:55:44.342Z,1009.63
2018-04-13T01:56:41.687Z,1009.68
2018-04-13T01:58:00.433Z,1009.67
2018-04-13T01:59:21.742Z,1009.67
2018-04-13T02:02:25.770Z,1009.58
2018-04-13T02:04:24.745Z,1009.57
2018-04-13T02:06:23.830Z,1009.57
2018-04-13T02:08:22.855Z,1009.58
2018-04-13T02:10:00.316Z,1009.71
2018-04-13T02:11:42.826Z,1009.86
2018-04-13T02:12:40.166Z,1009.80
2018-04-13T02:14:19.496Z,1009.81
2018-04-13T02:15:57.070Z,1009.72
2018-04-13T02:17:40.113Z,1009.73
2018-04-13T02:18:58.846Z,1009.70
2018-04-13T02:19:58.793Z,1009.71
2018-04-13T02:21:41.462Z,1009.73
2018-04-13T02:23:00.006Z,1009.78
2018-04-13T02:24:44.141Z,1009.81
2018-04-13T02:26:02.686Z,1009.79
2018-04-13T02:26:41.538Z,1009.78
2018-04-13T02:27:59.910Z,1009.77
2018-04-13T02:29:22.825Z,1009.72
2018-04-13T02:31:21.766Z,1009.67
2018-04-13T02:33:20.862Z,1009.66
2018-04-13T02:34:58.560Z,1009.73
2018-04-13T02:36:01.839Z,1009.73
2018-04-13T02:36:18.694Z,1009.73
2018-04-13T02:38:39.226Z,1009.71
2018-04-13T02:40:19.074Z,1009.70
2018-04-13T02:41:56.974Z,1009.74
2018-04-13T02:44:01.174Z,1009.70
2018-04-13T02:45:22.289Z,1009.72
2018-04-13T02:46:40.008Z,1009.76
2018-04-13T02:47:58.549Z,1009.75
2018-04-13T02:49:41.058Z,1009.73
2018-04-13T02:51:20.998Z,1009.76
2018-04-13T02:53:20.080Z,1009.85
2018-04-13T02:54:36.730Z,1009.77
2018-04-13T02:57:00.147Z,1009.88
2018-04-13T02:58:42.750Z,1009.88
2018-04-13T03:00:01.389Z,1009.84
2018-04-13T03:00:19.393Z,1009.89
2018-04-13T03:02:21.578Z,1009.95
2018-04-13T03:03:59.274Z,1010.02
2018-04-13T03:05:20.923Z,1009.99
2018-04-13T03:07:19.774Z,1010.01
2018-04-13T03:08:36.380Z,1009.98
2018-04-13T03:11:21.541Z,1010.10
2018-04-13T03:12:38.145Z,1010.05
2018-04-13T03:13:35.614Z,1010.08
2018-04-13T03:16:00.619Z,1010.07
2018-04-13T03:18:04.403Z,1010.02
2018-04-13T03:19:26.015Z,1010.11
2018-04-13T03:21:25.006Z,1010.18
2018-04-13T03:23:02.695Z,1010.19
2018-04-13T03:24:45.190Z,1010.17
2018-04-13T03:26:03.834Z,1010.20
2018-04-13T03:28:07.944Z,1010.18
2018-04-13T03:29:29.349Z,1010.23
2018-04-13T03:32:57.840Z,1010.27
2018-04-13T03:34:19.256Z,1010.28
2018-04-13T03:36:18.241Z,1010.28
2018-04-13T03:38:40.174Z,1010.31
2018-04-13T03:39:58.733Z,1010.31
2018-04-13T03:41:19.868Z,1010.31
2018-04-13T03:42:57.513Z,1010.36
2018-04-13T03:44:40.120Z,1010.31
2018-04-13T03:45:59.776Z,1010.22
2018-04-13T03:47:20.997Z,1010.24
2018-04-13T03:48:37.638Z,1010.27
2018-04-13T03:51:00.441Z,1010.32
2018-04-13T03:52:42.832Z,1010.27
2018-04-13T03:54:01.378Z,1010.23
2018-04-13T03:55:22.690Z,1010.19
2018-04-13T03:57:00.377Z,1010.21
2018-04-13T03:58:42.988Z,1010.36
2018-04-13T04:00:01.535Z,1010.43
2018-04-13T07:23:30.827Z,1014.09
2018-04-13T07:24:49.485Z,1014.08
2018-04-13T07:25:49.593Z,1014.17
2018-04-13T07:27:11.100Z,1014.19
2018-04-13T07:28:48.686Z,1014.18
2018-04-13T07:29:48.710Z,1014.24
2018-04-13T07:31:31.301Z,1014.24
2018-04-13T07:32:07.749Z,1014.23
2018-04-13T07:35:55.200Z,1014.35
2018-04-13T07:37:16.706Z,1014.27
2018-04-13T07:39:25.238Z,1014.38
2018-04-13T07:40:19.771Z,1014.40
2018-04-13T07:41:36.186Z,1014.42
2018-04-13T07:43:16.126Z,1014.42
2018-04-13T07:45:15.322Z,1014.49
2018-04-13T07:46:52.914Z,1014.48
2018-04-13T07:48:14.322Z,1014.50
2018-04-13T07:49:52.001Z,1014.47
2018-04-13T07:51:34.519Z,1014.52
2018-04-13T07:52:53.053Z,1014.45
2018-04-13T07:53:53.061Z,1014.41
2018-04-13T07:55:35.561Z,1014.44
2018-04-13T07:57:15.509Z,1014.50
2018-04-13T07:58:53.300Z,1014.52
2018-04-13T08:00:35.808Z,1014.51
2018-04-13T08:01:54.450Z,1014.48
2018-04-13T08:03:37.055Z,1014.49
2018-04-13T08:04:34.306Z,1014.55
2018-04-13T08:05:52.749Z,1014.55
2018-04-13T08:07:14.194Z,1014.50
2018-04-13T08:08:51.855Z,1014.56
2018-04-13T08:10:34.446Z,1014.53
2018-04-13T08:11:52.991Z,1014.52
2018-04-13T08:13:14.095Z,1014.53
2018-04-13T08:15:12.983Z,1014.66
2018-04-13T08:16:50.667Z,1014.69
2018-04-13T08:18:33.314Z,1014.72
2018-04-13T08:19:51.821Z,1014.69
2018-04-13T08:21:13.031Z,1014.73
2018-04-13T15:22:19.814Z,1017.49
2018-04-13T15:24:18.865Z,1017.52
2018-04-13T15:26:17.874Z,1017.42
2018-04-13T15:27:55.262Z,1017.43
2018-04-13T15:29:19.393Z,1017.39
2018-04-13T15:30:57.014Z,1017.48
2018-04-13T15:32:39.819Z,1017.52
2018-04-13T15:35:05.349Z,1017.44
2018-04-13T15:36:20.147Z,1017.46
2018-04-13T15:37:57.983Z,1017.50
2018-04-13T15:39:40.494Z,1017.48
2018-04-13T15:41:23.826Z,1017.49
2018-04-13T15:42:20.438Z,1017.54
2018-04-13T15:45:48.821Z,1017.44
2018-04-13T15:47:10.140Z,1017.51
2018-04-13T15:49:09.228Z,1017.50
2018-04-13T15:51:51.534Z,1017.60
2018-04-13T15:53:34.051Z,1017.57
2018-04-13T15:55:13.886Z,1017.57
2018-04-13T15:56:51.883Z,1017.51
2018-04-13T15:58:34.481Z,1017.53
2018-04-13T16:00:14.322Z,1017.60
2018-04-13T16:01:52.114Z,1017.53
2018-04-13T16:03:14.342Z,1017.54
2018-04-13T16:04:52.042Z,1017.58
2018-04-13T16:06:34.654Z,1017.54
2018-04-13T16:07:53.390Z,1017.58
2018-04-13T16:09:35.897Z,1017.67
2018-04-13T16:10:54.445Z,1017.68
2018-04-13T16:12:36.833Z,1017.75
2018-04-13T16:14:16.683Z,1017.77
2018-04-13T16:15:54.569Z,1017.72
2018-04-13T16:17:15.891Z,1017.75
2018-04-13T16:20:33.284Z,1017.76
2018-04-13T16:21:52.053Z,1017.79
